sensor_id;sensor_type;location;lat;lon;timestamp;P1;durP1;ratioP1;P2;durP2;ratioP2
25079;SDS011;13071;48.868;9.996;2023-04-03T00:01:24;2.28;;;2.00;;
25079;SDS011;13071;48.868;9.996;2023-04-03T00:03:52;3.20;;;1.77;;
25079;SDS011;13071;48.868;9.996;2023-04-03T00:06:19;2.10;;;1.85;;
25079;SDS011;13071;48.868;9.996;2023-04-03T00:08:46;3.90;;;2.05;;
25079;SDS011;13071;48.868;9.996;2023-04-03T00:11:12;2.83;;;1.90;;
25079;SDS011;13071;48.868;9.996;2023-04-03T00:13:40;3.97;;;2.22;;
25079;SDS011;13071;48.868;9.996;2023-04-03T00:16:07;5.38;;;2.42;;
25079;SDS011;13071;48.868;9.996;2023-04-03T00:18:35;2.90;;;2.25;;
25079;SDS011;13071;48.868;9.996;2023-04-03T00:21:04;3.65;;;2.20;;
25079;SDS011;13071;48.868;9.996;2023-04-03T00:23:31;3.40;;;2.30;;
25079;SDS011;13071;48.868;9.996;2023-04-03T00:25:58;3.83;;;2.38;;
25079;SDS011;13071;48.868;9.996;2023-04-03T00:28:25;2.28;;;1.83;;
25079;SDS011;13071;48.868;9.996;2023-04-03T00:30:51;4.30;;;2.33;;
25079;SDS011;13071;48.868;9.996;2023-04-03T00:33:18;5.07;;;2.22;;
25079;SDS011;13071;48.868;9.996;2023-04-03T00:35:46;3.95;;;2.40;;
25079;SDS011;13071;48.868;9.996;2023-04-03T00:38:14;2.50;;;1.85;;
25079;SDS011;13071;48.868;9.996;2023-04-03T00:40:42;3.03;;;2.25;;
25079;SDS011;13071;48.868;9.996;2023-04-03T00:43:10;3.97;;;2.17;;
25079;SDS011;13071;48.868;9.996;2023-04-03T00:45:40;3.35;;;2.15;;
25079;SDS011;13071;48.868;9.996;2023-04-03T00:48:08;3.45;;;2.42;;
25079;SDS011;13071;48.868;9.996;2023-04-03T00:50:38;3.53;;;2.05;;
25079;SDS011;13071;48.868;9.996;2023-04-03T00:53:06;5.70;;;2.38;;
25079;SDS011;13071;48.868;9.996;2023-04-03T00:55:38;4.47;;;2.13;;
25079;SDS011;13071;48.868;9.996;2023-04-03T00:58:05;2.58;;;1.98;;
25079;SDS011;13071;48.868;9.996;2023-04-03T01:00:33;3.40;;;2.08;;
25079;SDS011;13071;48.868;9.996;2023-04-03T01:03:03;3.60;;;2.10;;
25079;SDS011;13071;48.868;9.996;2023-04-03T01:05:30;3.20;;;2.10;;
25079;SDS011;13071;48.868;9.996;2023-04-03T01:07:57;2.00;;;1.77;;
25079;SDS011;13071;48.868;9.996;2023-04-03T01:10:25;3.20;;;2.22;;
25079;SDS011;13071;48.868;9.996;2023-04-03T01:12:53;3.20;;;2.30;;
25079;SDS011;13071;48.868;9.996;2023-04-03T01:15:20;4.68;;;2.00;;
25079;SDS011;13071;48.868;9.996;2023-04-03T01:17:49;5.50;;;2.15;;
25079;SDS011;13071;48.868;9.996;2023-04-03T01:20:31;4.03;;;2.05;;
25079;SDS011;13071;48.868;9.996;2023-04-03T01:23:12;4.13;;;2.05;;
25079;SDS011;13071;48.868;9.996;2023-04-03T01:25:50;2.65;;;2.00;;
25079;SDS011;13071;48.868;9.996;2023-04-03T01:28:21;2.95;;;2.20;;
25079;SDS011;13071;48.868;9.996;2023-04-03T01:30:51;2.10;;;1.90;;
25079;SDS011;13071;48.868;9.996;2023-04-03T01:33:26;3.72;;;2.30;;
25079;SDS011;13071;48.868;9.996;2023-04-03T01:35:52;2.42;;;1.95;;
25079;SDS011;13071;48.868;9.996;2023-04-03T01:38:19;3.38;;;2.30;;
25079;SDS011;13071;48.868;9.996;2023-04-03T01:40:46;3.47;;;2.13;;
25079;SDS011;13071;48.868;9.996;2023-04-03T01:43:13;3.47;;;2.20;;
25079;SDS011;13071;48.868;9.996;2023-04-03T01:45:39;2.88;;;1.75;;
25079;SDS011;13071;48.868;9.996;2023-04-03T01:48:06;2.70;;;1.85;;
25079;SDS011;13071;48.868;9.996;2023-04-03T01:50:34;5.50;;;2.10;;
25079;SDS011;13071;48.868;9.996;2023-04-03T01:53:00;2.47;;;1.85;;
25079;SDS011;13071;48.868;9.996;2023-04-03T01:55:27;4.93;;;2.25;;
25079;SDS011;13071;48.868;9.996;2023-04-03T01:57:54;4.72;;;2.22;;
25079;SDS011;13071;48.868;9.996;2023-04-03T02:00:20;4.28;;;1.85;;
25079;SDS011;13071;48.868;9.996;2023-04-03T02:02:47;3.85;;;2.08;;
25079;SDS011;13071;48.868;9.996;2023-04-03T02:05:13;2.53;;;1.75;;
25079;SDS011;13071;48.868;9.996;2023-04-03T02:07:42;4.13;;;2.05;;
25079;SDS011;13071;48.868;9.996;2023-04-03T02:10:08;2.67;;;2.15;;
25079;SDS011;13071;48.868;9.996;2023-04-03T02:12:35;5.05;;;2.60;;
25079;SDS011;13071;48.868;9.996;2023-04-03T02:15:02;4.07;;;2.03;;
25079;SDS011;13071;48.868;9.996;2023-04-03T02:17:29;2.72;;;2.00;;
25079;SDS011;13071;48.868;9.996;2023-04-03T02:19:56;5.50;;;2.13;;
25079;SDS011;13071;48.868;9.996;2023-04-03T02:22:23;3.92;;;1.80;;
25079;SDS011;13071;48.868;9.996;2023-04-03T02:24:51;2.85;;;1.95;;
25079;SDS011;13071;48.868;9.996;2023-04-03T02:27:17;5.13;;;1.98;;
25079;SDS011;13071;48.868;9.996;2023-04-03T02:29:44;3.58;;;1.88;;
25079;SDS011;13071;48.868;9.996;2023-04-03T02:32:10;2.00;;;1.60;;
25079;SDS011;13071;48.868;9.996;2023-04-03T02:34:37;3.58;;;1.98;;
25079;SDS011;13071;48.868;9.996;2023-04-03T02:37:04;2.13;;;1.73;;
25079;SDS011;13071;48.868;9.996;2023-04-03T02:39:31;2.95;;;1.88;;
25079;SDS011;13071;48.868;9.996;2023-04-03T02:41:59;5.50;;;2.03;;
25079;SDS011;13071;48.868;9.996;2023-04-03T02:44:26;7.38;;;2.33;;
25079;SDS011;13071;48.868;9.996;2023-04-03T02:46:52;2.92;;;1.73;;
25079;SDS011;13071;48.868;9.996;2023-04-03T02:49:19;4.72;;;2.42;;
25079;SDS011;13071;48.868;9.996;2023-04-03T02:51:45;6.50;;;2.20;;
25079;SDS011;13071;48.868;9.996;2023-04-03T02:54:12;2.63;;;1.98;;
25079;SDS011;13071;48.868;9.996;2023-04-03T02:56:39;4.65;;;2.17;;
25079;SDS011;13071;48.868;9.996;2023-04-03T02:59:07;5.75;;;2.25;;
25079;SDS011;13071;48.868;9.996;2023-04-03T03:01:34;2.88;;;2.20;;
25079;SDS011;13071;48.868;9.996;2023-04-03T03:04:00;4.47;;;2.33;;
25079;SDS011;13071;48.868;9.996;2023-04-03T03:06:27;4.22;;;2.10;;
25079;SDS011;13071;48.868;9.996;2023-04-03T03:08:54;3.90;;;1.90;;
25079;SDS011;13071;48.868;9.996;2023-04-03T03:11:21;6.10;;;2.10;;
25079;SDS011;13071;48.868;9.996;2023-04-03T03:13:47;2.15;;;1.75;;
25079;SDS011;13071;48.868;9.996;2023-04-03T03:16:15;2.30;;;2.00;;
25079;SDS011;13071;48.868;9.996;2023-04-03T03:18:42;1.98;;;1.88;;
25079;SDS011;13071;48.868;9.996;2023-04-03T03:21:09;2.60;;;2.10;;
25079;SDS011;13071;48.868;9.996;2023-04-03T03:23:36;2.72;;;2.00;;
25079;SDS011;13071;48.868;9.996;2023-04-03T03:26:03;2.92;;;1.90;;
25079;SDS011;13071;48.868;9.996;2023-04-03T03:28:31;1.98;;;1.77;;
25079;SDS011;13071;48.868;9.996;2023-04-03T03:30:58;1.90;;;1.70;;
25079;SDS011;13071;48.868;9.996;2023-04-03T03:33:26;2.00;;;1.77;;
25079;SDS011;13071;48.868;9.996;2023-04-03T03:35:53;10.15;;;2.00;;
25079;SDS011;13071;48.868;9.996;2023-04-03T03:38:20;1.80;;;1.60;;
25079;SDS011;13071;48.868;9.996;2023-04-03T03:40:47;5.15;;;2.08;;
25079;SDS011;13071;48.868;9.996;2023-04-03T03:43:14;4.05;;;2.00;;
25079;SDS011;13071;48.868;9.996;2023-04-03T03:45:41;4.10;;;1.95;;
25079;SDS011;13071;48.868;9.996;2023-04-03T03:48:08;5.82;;;2.13;;
25079;SDS011;13071;48.868;9.996;2023-04-03T03:50:36;2.13;;;1.88;;
25079;SDS011;13071;48.868;9.996;2023-04-03T03:53:02;3.03;;;1.95;;
25079;SDS011;13071;48.868;9.996;2023-04-03T03:55:29;3.70;;;1.88;;
25079;SDS011;13071;48.868;9.996;2023-04-03T03:57:55;2.90;;;2.08;;
25079;SDS011;13071;48.868;9.996;2023-04-03T04:00:22;3.30;;;2.40;;
25079;SDS011;13071;48.868;9.996;2023-04-03T04:02:48;1.90;;;1.65;;
25079;SDS011;13071;48.868;9.996;2023-04-03T04:05:15;1.88;;;1.58;;
25079;SDS011;13071;48.868;9.996;2023-04-03T04:07:43;2.85;;;1.95;;
25079;SDS011;13071;48.868;9.996;2023-04-03T04:10:10;3.08;;;1.67;;
25079;SDS011;13071;48.868;9.996;2023-04-03T04:12:38;2.08;;;1.80;;
25079;SDS011;13071;48.868;9.996;2023-04-03T04:15:05;1.70;;;1.60;;
25079;SDS011;13071;48.868;9.996;2023-04-03T04:17:32;2.13;;;1.75;;
25079;SDS011;13071;48.868;9.996;2023-04-03T04:20:00;1.67;;;1.58;;
25079;SDS011;13071;48.868;9.996;2023-04-03T04:22:27;2.35;;;1.83;;
25079;SDS011;13071;48.868;9.996;2023-04-03T04:24:55;2.33;;;1.50;;
25079;SDS011;13071;48.868;9.996;2023-04-03T04:27:22;1.52;;;1.40;;
25079;SDS011;13071;48.868;9.996;2023-04-03T04:29:48;2.13;;;1.58;;
25079;SDS011;13071;48.868;9.996;2023-04-03T04:32:15;2.17;;;1.63;;
25079;SDS011;13071;48.868;9.996;2023-04-03T04:34:41;1.67;;;1.58;;
25079;SDS011;13071;48.868;9.996;2023-04-03T04:37:08;2.50;;;1.90;;
25079;SDS011;13071;48.868;9.996;2023-04-03T04:39:34;3.50;;;1.90;;
25079;SDS011;13071;48.868;9.996;2023-04-03T04:42:03;2.47;;;1.50;;
25079;SDS011;13071;48.868;9.996;2023-04-03T04:44:29;1.25;;;1.13;;
25079;SDS011;13071;48.868;9.996;2023-04-03T04:46:56;2.03;;;1.77;;
25079;SDS011;13071;48.868;9.996;2023-04-03T04:49:22;2.72;;;2.30;;
25079;SDS011;13071;48.868;9.996;2023-04-03T04:51:49;2.95;;;1.90;;
25079;SDS011;13071;48.868;9.996;2023-04-03T04:54:16;5.38;;;1.63;;
25079;SDS011;13071;48.868;9.996;2023-04-03T04:56:42;2.22;;;1.73;;
25079;SDS011;13071;48.868;9.996;2023-04-03T04:59:10;2.10;;;1.73;;
25079;SDS011;13071;48.868;9.996;2023-04-03T05:01:37;1.75;;;1.65;;
25079;SDS011;13071;48.868;9.996;2023-04-03T05:04:04;2.75;;;1.70;;
25079;SDS011;13071;48.868;9.996;2023-04-03T05:06:30;2.80;;;1.63;;
25079;SDS011;13071;48.868;9.996;2023-04-03T05:08:58;2.85;;;1.65;;
25079;SDS011;13071;48.868;9.996;2023-04-03T05:11:24;3.00;;;1.65;;
25079;SDS011;13071;48.868;9.996;2023-04-03T05:13:51;3.33;;;1.85;;
25079;SDS011;13071;48.868;9.996;2023-04-03T05:16:20;3.33;;;1.97;;
25079;SDS011;13071;48.868;9.996;2023-04-03T05:18:46;2.05;;;1.50;;
25079;SDS011;13071;48.868;9.996;2023-04-03T05:21:13;4.57;;;1.77;;
25079;SDS011;13071;48.868;9.996;2023-04-03T05:23:39;3.53;;;1.65;;
25079;SDS011;13071;48.868;9.996;2023-04-03T05:26:06;2.55;;;1.75;;
25079;SDS011;13071;48.868;9.996;2023-04-03T05:28:34;5.32;;;2.00;;
25079;SDS011;13071;48.868;9.996;2023-04-03T05:31:01;1.90;;;1.58;;
25079;SDS011;13071;48.868;9.996;2023-04-03T05:33:29;1.98;;;1.48;;
25079;SDS011;13071;48.868;9.996;2023-04-03T05:35:56;2.15;;;1.67;;
25079;SDS011;13071;48.868;9.996;2023-04-03T05:38:22;3.30;;;1.90;;
25079;SDS011;13071;48.868;9.996;2023-04-03T05:40:49;1.88;;;1.40;;
25079;SDS011;13071;48.868;9.996;2023-04-03T05:43:15;1.75;;;1.42;;
25079;SDS011;13071;48.868;9.996;2023-04-03T05:45:42;3.03;;;1.80;;
25079;SDS011;13071;48.868;9.996;2023-04-03T05:48:09;3.30;;;2.13;;
25079;SDS011;13071;48.868;9.996;2023-04-03T05:50:37;2.72;;;1.40;;
25079;SDS011;13071;48.868;9.996;2023-04-03T05:53:06;4.72;;;1.70;;
25079;SDS011;13071;48.868;9.996;2023-04-03T05:55:38;5.28;;;1.90;;
25079;SDS011;13071;48.868;9.996;2023-04-03T05:58:05;2.08;;;1.33;;
25079;SDS011;13071;48.868;9.996;2023-04-03T06:00:31;2.10;;;1.70;;
25079;SDS011;13071;48.868;9.996;2023-04-03T06:02:58;5.63;;;1.95;;
25079;SDS011;13071;48.868;9.996;2023-04-03T06:05:24;6.32;;;1.90;;
25079;SDS011;13071;48.868;9.996;2023-04-03T06:07:53;3.67;;;1.92;;
25079;SDS011;13071;48.868;9.996;2023-04-03T06:10:19;9.98;;;2.03;;
25079;SDS011;13071;48.868;9.996;2023-04-03T06:12:46;3.63;;;2.25;;
25079;SDS011;13071;48.868;9.996;2023-04-03T06:15:13;2.22;;;1.60;;
25079;SDS011;13071;48.868;9.996;2023-04-03T06:17:40;2.00;;;1.80;;
25079;SDS011;13071;48.868;9.996;2023-04-03T06:20:07;3.33;;;2.15;;
25079;SDS011;13071;48.868;9.996;2023-04-03T06:22:34;4.07;;;2.20;;
25079;SDS011;13071;48.868;9.996;2023-04-03T06:25:02;5.22;;;2.25;;
25079;SDS011;13071;48.868;9.996;2023-04-03T06:27:29;5.10;;;2.67;;
25079;SDS011;13071;48.868;9.996;2023-04-03T06:29:56;4.68;;;2.00;;
25079;SDS011;13071;48.868;9.996;2023-04-03T06:32:23;2.92;;;1.85;;
25079;SDS011;13071;48.868;9.996;2023-04-03T06:34:50;2.50;;;1.90;;
25079;SDS011;13071;48.868;9.996;2023-04-03T06:37:18;3.47;;;1.80;;
25079;SDS011;13071;48.868;9.996;2023-04-03T06:39:47;6.28;;;3.00;;
25079;SDS011;13071;48.868;9.996;2023-04-03T06:42:15;2.38;;;1.98;;
25079;SDS011;13071;48.868;9.996;2023-04-03T06:44:41;4.80;;;2.13;;
25079;SDS011;13071;48.868;9.996;2023-04-03T06:47:09;5.50;;;1.92;;
25079;SDS011;13071;48.868;9.996;2023-04-03T06:49:37;7.47;;;2.30;;
25079;SDS011;13071;48.868;9.996;2023-04-03T06:52:04;2.88;;;1.90;;
25079;SDS011;13071;48.868;9.996;2023-04-03T06:54:31;2.85;;;2.38;;
25079;SDS011;13071;48.868;9.996;2023-04-03T06:56:57;4.22;;;2.38;;
25079;SDS011;13071;48.868;9.996;2023-04-03T06:59:25;2.85;;;2.03;;
25079;SDS011;13071;48.868;9.996;2023-04-03T07:01:52;8.02;;;2.15;;
25079;SDS011;13071;48.868;9.996;2023-04-03T07:04:18;1.98;;;1.88;;
25079;SDS011;13071;48.868;9.996;2023-04-03T07:06:45;2.83;;;2.30;;
25079;SDS011;13071;48.868;9.996;2023-04-03T07:09:13;3.30;;;1.95;;
25079;SDS011;13071;48.868;9.996;2023-04-03T07:11:39;3.72;;;2.13;;
25079;SDS011;13071;48.868;9.996;2023-04-03T07:14:06;4.07;;;2.38;;
25079;SDS011;13071;48.868;9.996;2023-04-03T07:16:35;4.88;;;2.47;;
25079;SDS011;13071;48.868;9.996;2023-04-03T07:19:02;6.50;;;2.20;;
25079;SDS011;13071;48.868;9.996;2023-04-03T07:21:29;6.57;;;3.00;;
25079;SDS011;13071;48.868;9.996;2023-04-03T07:23:55;3.70;;;2.30;;
25079;SDS011;13071;48.868;9.996;2023-04-03T07:26:22;6.22;;;3.05;;
25079;SDS011;13071;48.868;9.996;2023-04-03T07:28:49;4.07;;;2.10;;
25079;SDS011;13071;48.868;9.996;2023-04-03T07:31:16;4.55;;;2.35;;
25079;SDS011;13071;48.868;9.996;2023-04-03T07:33:45;3.55;;;2.35;;
25079;SDS011;13071;48.868;9.996;2023-04-03T07:36:14;3.63;;;2.30;;
25079;SDS011;13071;48.868;9.996;2023-04-03T07:38:42;4.28;;;2.53;;
25079;SDS011;13071;48.868;9.996;2023-04-03T07:41:10;3.67;;;2.20;;
25079;SDS011;13071;48.868;9.996;2023-04-03T07:43:40;3.40;;;2.65;;
25079;SDS011;13071;48.868;9.996;2023-04-03T07:46:07;3.97;;;2.15;;
25079;SDS011;13071;48.868;9.996;2023-04-03T07:48:34;4.03;;;2.80;;
25079;SDS011;13071;48.868;9.996;2023-04-03T07:51:02;3.60;;;2.28;;
25079;SDS011;13071;48.868;9.996;2023-04-03T07:53:30;4.20;;;2.63;;
25079;SDS011;13071;48.868;9.996;2023-04-03T07:55:57;10.45;;;2.78;;
25079;SDS011;13071;48.868;9.996;2023-04-03T07:58:24;4.38;;;2.88;;
25079;SDS011;13071;48.868;9.996;2023-04-03T08:00:51;3.55;;;2.50;;
25079;SDS011;13071;48.868;9.996;2023-04-03T08:03:18;7.15;;;3.33;;
25079;SDS011;13071;48.868;9.996;2023-04-03T08:05:46;3.58;;;2.75;;
25079;SDS011;13071;48.868;9.996;2023-04-03T08:08:16;8.07;;;2.92;;
25079;SDS011;13071;48.868;9.996;2023-04-03T08:10:45;4.05;;;2.63;;
25079;SDS011;13071;48.868;9.996;2023-04-03T08:13:14;6.13;;;2.97;;
25079;SDS011;13071;48.868;9.996;2023-04-03T08:15:41;4.10;;;2.78;;
25079;SDS011;13071;48.868;9.996;2023-04-03T08:18:08;8.18;;;2.83;;
25079;SDS011;13071;48.868;9.996;2023-04-03T08:20:35;5.65;;;2.78;;
25079;SDS011;13071;48.868;9.996;2023-04-03T08:23:03;4.63;;;2.58;;
25079;SDS011;13071;48.868;9.996;2023-04-03T08:25:31;4.18;;;2.75;;
25079;SDS011;13071;48.868;9.996;2023-04-03T08:27:58;5.18;;;2.95;;
25079;SDS011;13071;48.868;9.996;2023-04-03T08:30:25;3.58;;;2.67;;
25079;SDS011;13071;48.868;9.996;2023-04-03T08:32:51;4.75;;;2.53;;
25079;SDS011;13071;48.868;9.996;2023-04-03T08:35:18;5.53;;;2.78;;
25079;SDS011;13071;48.868;9.996;2023-04-03T08:37:45;8.30;;;2.65;;
25079;SDS011;13071;48.868;9.996;2023-04-03T08:40:12;5.68;;;2.70;;
25079;SDS011;13071;48.868;9.996;2023-04-03T08:42:44;6.07;;;2.88;;
25079;SDS011;13071;48.868;9.996;2023-04-03T08:45:18;3.95;;;2.85;;
25079;SDS011;13071;48.868;9.996;2023-04-03T08:47:53;4.28;;;2.33;;
25079;SDS011;13071;48.868;9.996;2023-04-03T08:50:28;3.72;;;2.35;;
25079;SDS011;13071;48.868;9.996;2023-04-03T08:52:59;6.07;;;2.83;;
25079;SDS011;13071;48.868;9.996;2023-04-03T08:55:31;4.07;;;2.72;;
25079;SDS011;13071;48.868;9.996;2023-04-03T08:58:02;7.00;;;2.70;;
25079;SDS011;13071;48.868;9.996;2023-04-03T09:00:31;6.28;;;2.70;;
25079;SDS011;13071;48.868;9.996;2023-04-03T09:03:10;2.28;;;2.00;;
25079;SDS011;13071;48.868;9.996;2023-04-03T09:05:41;4.10;;;2.10;;
25079;SDS011;13071;48.868;9.996;2023-04-03T09:08:14;5.10;;;2.30;;
25079;SDS011;13071;48.868;9.996;2023-04-03T09:10:47;3.38;;;2.50;;
25079;SDS011;13071;48.868;9.996;2023-04-03T09:13:20;6.45;;;2.50;;
25079;SDS011;13071;48.868;9.996;2023-04-03T09:15:53;6.95;;;2.40;;
25079;SDS011;13071;48.868;9.996;2023-04-03T09:18:21;6.55;;;2.38;;
25079;SDS011;13071;48.868;9.996;2023-04-03T09:20:54;4.55;;;2.78;;
25079;SDS011;13071;48.868;9.996;2023-04-03T09:23:28;3.25;;;2.15;;
25079;SDS011;13071;48.868;9.996;2023-04-03T09:26:01;6.18;;;2.40;;
25079;SDS011;13071;48.868;9.996;2023-04-03T09:28:32;2.47;;;2.22;;
25079;SDS011;13071;48.868;9.996;2023-04-03T09:31:18;7.15;;;2.40;;
25079;SDS011;13071;48.868;9.996;2023-04-03T09:33:46;6.75;;;2.80;;
25079;SDS011;13071;48.868;9.996;2023-04-03T09:39:04;5.97;;;2.47;;
25079;SDS011;13071;48.868;9.996;2023-04-03T09:41:33;4.07;;;2.17;;
25079;SDS011;13071;48.868;9.996;2023-04-03T09:44:01;4.47;;;1.85;;
25079;SDS011;13071;48.868;9.996;2023-04-03T09:46:31;3.88;;;2.13;;
25079;SDS011;13071;48.868;9.996;2023-04-03T09:48:59;3.40;;;2.03;;
25079;SDS011;13071;48.868;9.996;2023-04-03T09:51:26;2.35;;;1.73;;
25079;SDS011;13071;48.868;9.996;2023-04-03T09:53:54;4.43;;;2.03;;
25079;SDS011;13071;48.868;9.996;2023-04-03T09:56:23;5.43;;;2.20;;
25079;SDS011;13071;48.868;9.996;2023-04-03T09:58:52;2.30;;;2.00;;
25079;SDS011;13071;48.868;9.996;2023-04-03T10:01:41;4.00;;;2.28;;
25079;SDS011;13071;48.868;9.996;2023-04-03T10:04:10;2.05;;;1.83;;
25079;SDS011;13071;48.868;9.996;2023-04-03T10:06:39;3.85;;;2.28;;
25079;SDS011;13071;48.868;9.996;2023-04-03T10:09:15;2.10;;;1.90;;
25079;SDS011;13071;48.868;9.996;2023-04-03T10:14:33;3.17;;;2.20;;
25079;SDS011;13071;48.868;9.996;2023-04-03T10:17:03;3.15;;;1.75;;
25079;SDS011;13071;48.868;9.996;2023-04-03T10:19:44;2.65;;;2.08;;
25079;SDS011;13071;48.868;9.996;2023-04-03T10:22:18;1.98;;;1.85;;
25079;SDS011;13071;48.868;9.996;2023-04-03T10:24:53;3.42;;;2.00;;
25079;SDS011;13071;48.868;9.996;2023-04-03T10:27:33;1.58;;;1.48;;
25079;SDS011;13071;48.868;9.996;2023-04-03T10:30:13;1.95;;;1.70;;
25079;SDS011;13071;48.868;9.996;2023-04-03T10:32:58;2.72;;;1.83;;
25079;SDS011;13071;48.868;9.996;2023-04-03T10:35:42;4.25;;;1.80;;
25079;SDS011;13071;48.868;9.996;2023-04-03T10:38:16;3.97;;;2.10;;
25079;SDS011;13071;48.868;9.996;2023-04-03T10:40:51;3.53;;;1.55;;
25079;SDS011;13071;48.868;9.996;2023-04-03T10:43:25;3.47;;;1.95;;
25079;SDS011;13071;48.868;9.996;2023-04-03T10:46:02;2.08;;;1.80;;
25079;SDS011;13071;48.868;9.996;2023-04-03T10:48:40;2.70;;;2.35;;
25079;SDS011;13071;48.868;9.996;2023-04-03T10:51:32;3.88;;;1.70;;
25079;SDS011;13071;48.868;9.996;2023-04-03T10:54:08;3.35;;;1.67;;
25079;SDS011;13071;48.868;9.996;2023-04-03T10:56:40;6.07;;;1.90;;
25079;SDS011;13071;48.868;9.996;2023-04-03T10:59:13;2.45;;;1.70;;
25079;SDS011;13071;48.868;9.996;2023-04-03T11:01:46;2.60;;;1.85;;
25079;SDS011;13071;48.868;9.996;2023-04-03T11:04:16;1.92;;;1.70;;
25079;SDS011;13071;48.868;9.996;2023-04-03T11:06:47;2.42;;;1.95;;
25079;SDS011;13071;48.868;9.996;2023-04-03T11:09:19;2.45;;;1.75;;
25079;SDS011;13071;48.868;9.996;2023-04-03T11:11:51;2.92;;;1.90;;
25079;SDS011;13071;48.868;9.996;2023-04-03T11:14:24;4.25;;;2.25;;
25079;SDS011;13071;48.868;9.996;2023-04-03T11:16:59;2.13;;;1.60;;
25079;SDS011;13071;48.868;9.996;2023-04-03T11:19:33;3.47;;;1.90;;
25079;SDS011;13071;48.868;9.996;2023-04-03T11:22:05;3.22;;;1.73;;
25079;SDS011;13071;48.868;9.996;2023-04-03T11:24:38;2.33;;;1.70;;
25079;SDS011;13071;48.868;9.996;2023-04-03T11:27:09;4.00;;;2.08;;
25079;SDS011;13071;48.868;9.996;2023-04-03T11:29:42;2.33;;;1.80;;
25079;SDS011;13071;48.868;9.996;2023-04-03T11:32:26;3.70;;;1.90;;
25079;SDS011;13071;48.868;9.996;2023-04-03T11:35:02;6.18;;;1.88;;
25079;SDS011;13071;48.868;9.996;2023-04-03T11:37:33;1.95;;;1.85;;
25079;SDS011;13071;48.868;9.996;2023-04-03T11:40:04;5.43;;;2.17;;
25079;SDS011;13071;48.868;9.996;2023-04-03T11:42:34;2.80;;;1.85;;
25079;SDS011;13071;48.868;9.996;2023-04-03T11:45:16;2.00;;;1.83;;
25079;SDS011;13071;48.868;9.996;2023-04-03T11:47:51;5.82;;;2.08;;
25079;SDS011;13071;48.868;9.996;2023-04-03T11:56:02;2.67;;;1.77;;
25079;SDS011;13071;48.868;9.996;2023-04-03T11:58:43;5.90;;;2.10;;
25079;SDS011;13071;48.868;9.996;2023-04-03T12:01:43;3.67;;;1.83;;
25079;SDS011;13071;48.868;9.996;2023-04-03T12:04:13;5.45;;;2.35;;
25079;SDS011;13071;48.868;9.996;2023-04-03T12:06:51;3.67;;;1.98;;
25079;SDS011;13071;48.868;9.996;2023-04-03T12:09:26;5.70;;;2.40;;
25079;SDS011;13071;48.868;9.996;2023-04-03T12:12:00;3.83;;;2.50;;
25079;SDS011;13071;48.868;9.996;2023-04-03T12:14:28;2.80;;;2.00;;
25079;SDS011;13071;48.868;9.996;2023-04-03T12:16:55;5.10;;;2.10;;
25079;SDS011;13071;48.868;9.996;2023-04-03T12:22:15;3.13;;;2.28;;
25079;SDS011;13071;48.868;9.996;2023-04-03T12:24:45;3.72;;;2.05;;
25079;SDS011;13071;48.868;9.996;2023-04-03T12:30:03;2.45;;;1.92;;
25079;SDS011;13071;48.868;9.996;2023-04-03T12:35:30;4.03;;;2.42;;
25079;SDS011;13071;48.868;9.996;2023-04-03T12:38:14;3.15;;;2.10;;
25079;SDS011;13071;48.868;9.996;2023-04-03T12:40:56;3.25;;;2.17;;
25079;SDS011;13071;48.868;9.996;2023-04-03T12:43:34;1.88;;;1.77;;
25079;SDS011;13071;48.868;9.996;2023-04-03T12:46:11;4.43;;;2.28;;
25079;SDS011;13071;48.868;9.996;2023-04-03T12:48:47;3.67;;;2.30;;
25079;SDS011;13071;48.868;9.996;2023-04-03T12:51:18;2.33;;;1.90;;
25079;SDS011;13071;48.868;9.996;2023-04-03T12:53:48;2.03;;;1.88;;
25079;SDS011;13071;48.868;9.996;2023-04-03T12:56:20;1.77;;;1.67;;
25079;SDS011;13071;48.868;9.996;2023-04-03T12:58:48;4.78;;;2.30;;
25079;SDS011;13071;48.868;9.996;2023-04-03T13:01:17;4.45;;;1.92;;
25079;SDS011;13071;48.868;9.996;2023-04-03T13:03:47;3.10;;;1.85;;
25079;SDS011;13071;48.868;9.996;2023-04-03T13:06:17;2.33;;;1.58;;
25079;SDS011;13071;48.868;9.996;2023-04-03T13:08:51;3.90;;;2.03;;
25079;SDS011;13071;48.868;9.996;2023-04-03T13:11:22;2.25;;;2.05;;
25079;SDS011;13071;48.868;9.996;2023-04-03T13:13:54;4.18;;;1.90;;
25079;SDS011;13071;48.868;9.996;2023-04-03T13:16:22;4.40;;;1.90;;
25079;SDS011;13071;48.868;9.996;2023-04-03T13:18:50;6.90;;;2.30;;
25079;SDS011;13071;48.868;9.996;2023-04-03T13:21:19;3.60;;;2.30;;
25079;SDS011;13071;48.868;9.996;2023-04-03T13:23:48;2.33;;;1.80;;
25079;SDS011;13071;48.868;9.996;2023-04-03T13:26:18;6.03;;;1.88;;
25079;SDS011;13071;48.868;9.996;2023-04-03T13:28:47;3.13;;;1.90;;
25079;SDS011;13071;48.868;9.996;2023-04-03T13:31:19;6.30;;;1.83;;
25079;SDS011;13071;48.868;9.996;2023-04-03T13:33:54;3.72;;;1.88;;
25079;SDS011;13071;48.868;9.996;2023-04-03T13:36:26;4.68;;;2.13;;
25079;SDS011;13071;48.868;9.996;2023-04-03T13:38:59;3.90;;;2.03;;
25079;SDS011;13071;48.868;9.996;2023-04-03T13:41:29;3.45;;;1.88;;
25079;SDS011;13071;48.868;9.996;2023-04-03T13:43:57;2.60;;;1.77;;
25079;SDS011;13071;48.868;9.996;2023-04-03T13:46:41;1.92;;;1.58;;
25079;SDS011;13071;48.868;9.996;2023-04-03T13:49:17;2.45;;;1.80;;
25079;SDS011;13071;48.868;9.996;2023-04-03T13:51:47;7.38;;;2.10;;
25079;SDS011;13071;48.868;9.996;2023-04-03T13:54:17;3.00;;;1.90;;
25079;SDS011;13071;48.868;9.996;2023-04-03T13:56:52;2.97;;;1.60;;
25079;SDS011;13071;48.868;9.996;2023-04-03T13:59:22;1.83;;;1.73;;
25079;SDS011;13071;48.868;9.996;2023-04-03T14:01:52;2.60;;;1.67;;
25079;SDS011;13071;48.868;9.996;2023-04-03T14:04:20;5.45;;;1.73;;
25079;SDS011;13071;48.868;9.996;2023-04-03T14:06:50;1.45;;;1.35;;
25079;SDS011;13071;48.868;9.996;2023-04-03T14:09:17;1.60;;;1.33;;
25079;SDS011;13071;48.868;9.996;2023-04-03T14:11:45;2.60;;;1.92;;
25079;SDS011;13071;48.868;9.996;2023-04-03T14:14:13;2.15;;;1.50;;
25079;SDS011;13071;48.868;9.996;2023-04-03T14:16:45;2.03;;;1.63;;
25079;SDS011;13071;48.868;9.996;2023-04-03T14:19:17;5.10;;;1.90;;
25079;SDS011;13071;48.868;9.996;2023-04-03T14:21:46;3.58;;;2.03;;
25079;SDS011;13071;48.868;9.996;2023-04-03T14:24:15;3.22;;;1.60;;
25079;SDS011;13071;48.868;9.996;2023-04-03T14:26:41;2.67;;;2.00;;
25079;SDS011;13071;48.868;9.996;2023-04-03T14:29:10;3.53;;;2.00;;
25079;SDS011;13071;48.868;9.996;2023-04-03T14:31:38;5.82;;;1.77;;
25079;SDS011;13071;48.868;9.996;2023-04-03T14:34:05;3.90;;;1.80;;
25079;SDS011;13071;48.868;9.996;2023-04-03T14:36:33;3.47;;;1.80;;
25079;SDS011;13071;48.868;9.996;2023-04-03T14:39:00;2.22;;;1.58;;
25079;SDS011;13071;48.868;9.996;2023-04-03T14:41:28;4.10;;;1.63;;
25079;SDS011;13071;48.868;9.996;2023-04-03T14:43:55;2.60;;;1.42;;
25079;SDS011;13071;48.868;9.996;2023-04-03T14:46:22;2.55;;;1.60;;
25079;SDS011;13071;48.868;9.996;2023-04-03T14:48:52;2.45;;;1.40;;
25079;SDS011;13071;48.868;9.996;2023-04-03T14:51:19;2.42;;;1.55;;
25079;SDS011;13071;48.868;9.996;2023-04-03T14:53:46;1.58;;;1.48;;
25079;SDS011;13071;48.868;9.996;2023-04-03T14:56:14;1.63;;;1.52;;
25079;SDS011;13071;48.868;9.996;2023-04-03T14:58:44;4.55;;;1.80;;
25079;SDS011;13071;48.868;9.996;2023-04-03T15:01:14;2.72;;;1.65;;
25079;SDS011;13071;48.868;9.996;2023-04-03T15:03:40;4.15;;;1.50;;
25079;SDS011;13071;48.868;9.996;2023-04-03T15:06:08;5.82;;;1.80;;
25079;SDS011;13071;48.868;9.996;2023-04-03T15:08:36;4.35;;;1.58;;
25079;SDS011;13071;48.868;9.996;2023-04-03T15:11:03;2.35;;;1.60;;
25079;SDS011;13071;48.868;9.996;2023-04-03T15:13:30;1.95;;;1.67;;
25079;SDS011;13071;48.868;9.996;2023-04-03T15:15:58;1.67;;;1.58;;
25079;SDS011;13071;48.868;9.996;2023-04-03T15:18:25;1.45;;;1.35;;
25079;SDS011;13071;48.868;9.996;2023-04-03T15:20:53;1.48;;;1.15;;